sensor_id;sensor_type;location;lat;lon;timestamp;pressure;altitude;pressure_sealevel;temperature;humidity
70546;BME280;58098;51.680;5.134;2023-05-01T00:02:11;101799.25;;;12.32;100.00
70546;BME280;58098;51.680;5.134;2023-05-01T00:04:36;101812.84;;;12.37;100.00
70546;BME280;58098;51.680;5.134;2023-05-01T00:07:02;101807.63;;;12.37;100.00
70546;BME280;58098;51.680;5.134;2023-05-01T00:09:27;101800.09;;;12.33;100.00
70546;BME280;58098;51.680;5.134;2023-05-01T00:11:52;101796.75;;;12.31;100.00
70546;BME280;58098;51.680;5.134;2023-05-01T00:14:18;101806.97;;;12.34;100.00
70546;BME280;58098;51.680;5.134;2023-05-01T00:16:43;101799.25;;;12.32;100.00
70546;BME280;58098;51.680;5.134;2023-05-01T00:19:11;101788.28;;;12.27;100.00
70546;BME280;58098;51.680;5.134;2023-05-01T00:21:36;101793.19;;;12.32;100.00
70546;BME280;58098;51.680;5.134;2023-05-01T00:24:02;101780.41;;;12.27;100.00
70546;BME280;58098;51.680;5.134;2023-05-01T00:26:27;101784.09;;;12.25;100.00
70546;BME280;58098;51.680;5.134;2023-05-01T00:28:55;101788.28;;;12.27;100.00
70546;BME280;58098;51.680;5.134;2023-05-01T00:31:23;101778.53;;;12.29;100.00
70546;BME280;58098;51.680;5.134;2023-05-01T00:33:48;101786.63;;;12.26;100.00
70546;BME280;58098;51.680;5.134;2023-05-01T00:36:13;101769.34;;;12.24;100.00
70546;BME280;58098;51.680;5.134;2023-05-01T00:38:38;101778.78;;;12.26;100.00
70546;BME280;58098;51.680;5.134;2023-05-01T00:41:04;101767.47;;;12.26;100.00
70546;BME280;58098;51.680;5.134;2023-05-01T00:43:29;101765.69;;;12.26;100.00
70546;BME280;58098;51.680;5.134;2023-05-01T00:45:55;101749.88;;;12.15;100.00
70546;BME280;58098;51.680;5.134;2023-05-01T00:48:20;101757.19;;;12.23;100.00
70546;BME280;58098;51.680;5.134;2023-05-01T00:50:46;101757.19;;;12.23;100.00
70546;BME280;58098;51.680;5.134;2023-05-01T00:53:13;101752.81;;;12.23;100.00
70546;BME280;58098;51.680;5.134;2023-05-01T00:55:40;101747.47;;;12.25;100.00
70546;BME280;58098;51.680;5.134;2023-05-01T00:58:06;101746.09;;;12.19;100.00
70546;BME280;58098;51.680;5.134;2023-05-01T01:00:32;101749.16;;;12.13;100.00
70546;BME280;58098;51.680;5.134;2023-05-01T01:02:57;101745.50;;;12.16;100.00
70546;BME280;58098;51.680;5.134;2023-05-01T01:05:24;101746.34;;;12.16;100.00
70546;BME280;58098;51.680;5.134;2023-05-01T01:08:04;101734.84;;;12.06;100.00
70546;BME280;58098;51.680;5.134;2023-05-01T01:10:45;101744.34;;;12.07;100.00
70546;BME280;58098;51.680;5.134;2023-05-01T01:13:26;101732.44;;;12.03;100.00
70546;BME280;58098;51.680;5.134;2023-05-01T01:16:00;101720.34;;;12.02;100.00
70546;BME280;58098;51.680;5.134;2023-05-01T01:18:39;101724.38;;;12.06;100.00
70546;BME280;58098;51.680;5.134;2023-05-01T01:21:12;101721.56;;;12.09;100.00
70546;BME280;58098;51.680;5.134;2023-05-01T01:34:48;101694.72;;;11.95;100.00
70546;BME280;58098;51.680;5.134;2023-05-01T01:37:28;101689.06;;;11.88;100.00
70546;BME280;58098;51.680;5.134;2023-05-01T01:40:09;101695.53;;;11.95;100.00
70546;BME280;58098;51.680;5.134;2023-05-01T01:42:43;101675.25;;;11.86;100.00
70546;BME280;58098;51.680;5.134;2023-05-01T01:45:21;101684.06;;;11.85;100.00
70546;BME280;58098;51.680;5.134;2023-05-01T01:47:48;101675.47;;;11.83;100.00
70546;BME280;58098;51.680;5.134;2023-05-01T01:50:17;101683.09;;;11.86;100.00
70546;BME280;58098;51.680;5.134;2023-05-01T01:52:48;101679.78;;;11.84;100.00
70546;BME280;58098;51.680;5.134;2023-05-01T01:55:14;101670.78;;;11.75;100.00
70546;BME280;58098;51.680;5.134;2023-05-01T01:57:41;101669.63;;;11.79;100.00
70546;BME280;58098;51.680;5.134;2023-05-01T02:00:10;101661.06;;;11.77;100.00
70546;BME280;58098;51.680;5.134;2023-05-01T02:02:37;101668.06;;;11.77;100.00
70546;BME280;58098;51.680;5.134;2023-05-01T02:05:07;101651.16;;;11.70;100.00
70546;BME280;58098;51.680;5.134;2023-05-01T02:07:34;101647.56;;;11.71;100.00
70546;BME280;58098;51.680;5.134;2023-05-01T02:10:03;101663.56;;;11.79;100.00
70546;BME280;58098;51.680;5.134;2023-05-01T02:12:30;101658.53;;;11.76;100.00
70546;BME280;58098;51.680;5.134;2023-05-01T02:14:57;101641.81;;;11.66;100.00
70546;BME280;58098;51.680;5.134;2023-05-01T02:17:24;101651.44;;;11.65;100.00
70546;BME280;58098;51.680;5.134;2023-05-01T02:19:52;101661.50;;;11.71;100.00
70546;BME280;58098;51.680;5.134;2023-05-01T02:22:20;101645.47;;;11.63;100.00
70546;BME280;58098;51.680;5.134;2023-05-01T02:24:47;101635.97;;;11.62;100.00
70546;BME280;58098;51.680;5.134;2023-05-01T02:27:22;101646.84;;;11.69;100.00
70546;BME280;58098;51.680;5.134;2023-05-01T02:29:47;101636.81;;;11.63;100.00
70546;BME280;58098;51.680;5.134;2023-05-01T02:32:13;101645.19;;;11.68;100.00
70546;BME280;58098;51.680;5.134;2023-05-01T02:34:38;101633.22;;;11.64;100.00
70546;BME280;58098;51.680;5.134;2023-05-01T02:37:05;101630.75;;;11.62;100.00
70546;BME280;58098;51.680;5.134;2023-05-01T02:39:31;101623.84;;;11.49;100.00
70546;BME280;58098;51.680;5.134;2023-05-01T02:41:58;101623.38;;;11.44;100.00
70546;BME280;58098;51.680;5.134;2023-05-01T02:44:26;101621.34;;;11.47;100.00
70546;BME280;58098;51.680;5.134;2023-05-01T02:46:52;101626.47;;;11.49;100.00
70546;BME280;58098;51.680;5.134;2023-05-01T02:49:21;101622.00;;;11.51;100.00
70546;BME280;58098;51.680;5.134;2023-05-01T02:51:47;101616.97;;;11.48;100.00
70546;BME280;58098;51.680;5.134;2023-05-01T02:54:13;101613.50;;;11.47;100.00
70546;BME280;58098;51.680;5.134;2023-05-01T02:56:39;101600.91;;;11.41;100.00
70546;BME280;58098;51.680;5.134;2023-05-01T02:59:05;101602.03;;;11.37;100.00
70546;BME280;58098;51.680;5.134;2023-05-01T03:01:30;101600.16;;;11.39;100.00
70546;BME280;58098;51.680;5.134;2023-05-01T03:03:56;101607.69;;;11.44;100.00
70546;BME280;58098;51.680;5.134;2023-05-01T03:06:22;101607.25;;;11.37;100.00
70546;BME280;58098;51.680;5.134;2023-05-01T03:08:47;101607.19;;;11.39;100.00
70546;BME280;58098;51.680;5.134;2023-05-01T03:11:12;101600.47;;;11.35;100.00
70546;BME280;58098;51.680;5.134;2023-05-01T03:13:39;101590.25;;;11.32;100.00
70546;BME280;58098;51.680;5.134;2023-05-01T03:16:04;101582.72;;;11.27;100.00
70546;BME280;58098;51.680;5.134;2023-05-01T03:18:29;101590.66;;;11.25;100.00
70546;BME280;58098;51.680;5.134;2023-05-01T03:20:55;101594.00;;;11.27;100.00
70546;BME280;58098;51.680;5.134;2023-05-01T03:23:23;101571.47;;;11.14;100.00
70546;BME280;58098;51.680;5.134;2023-05-01T03:25:50;101577.28;;;11.17;100.00
70546;BME280;58098;51.680;5.134;2023-05-01T03:28:15;101582.00;;;11.12;100.00
70546;BME280;58098;51.680;5.134;2023-05-01T03:30:42;101587.75;;;11.17;100.00
70546;BME280;58098;51.680;5.134;2023-05-01T03:33:08;101568.13;;;11.12;100.00
70546;BME280;58098;51.680;5.134;2023-05-01T03:35:33;101582.44;;;11.19;100.00
70546;BME280;58098;51.680;5.134;2023-05-01T03:37:58;101570.41;;;11.16;100.00
70546;BME280;58098;51.680;5.134;2023-05-01T03:40:24;101557.78;;;11.10;100.00
70546;BME280;58098;51.680;5.134;2023-05-01T03:42:49;101569.38;;;11.19;100.00
70546;BME280;58098;51.680;5.134;2023-05-01T03:45:15;101566.66;;;11.20;100.00
70546;BME280;58098;51.680;5.134;2023-05-01T03:47:40;101561.88;;;11.14;100.00
70546;BME280;58098;51.680;5.134;2023-05-01T03:50:06;101558.28;;;11.15;100.00
70546;BME280;58098;51.680;5.134;2023-05-01T03:52:32;101560.28;;;11.12;100.00
70546;BME280;58098;51.680;5.134;2023-05-01T03:54:57;101573.13;;;11.15;100.00
70546;BME280;58098;51.680;5.134;2023-05-01T03:57:23;101548.91;;;11.00;100.00
70546;BME280;58098;51.680;5.134;2023-05-01T03:59:48;101556.22;;;10.95;100.00
70546;BME280;58098;51.680;5.134;2023-05-01T04:02:14;101567.31;;;10.99;100.00
70546;BME280;58098;51.680;5.134;2023-05-01T04:04:39;101553.53;;;10.84;100.00
70546;BME280;58098;51.680;5.134;2023-05-01T04:07:05;101568.97;;;10.87;100.00
70546;BME280;58098;51.680;5.134;2023-05-01T04:09:30;101558.53;;;10.87;100.00
70546;BME280;58098;51.680;5.134;2023-05-01T04:11:55;101547.91;;;10.78;100.00
70546;BME280;58098;51.680;5.134;2023-05-01T04:14:21;101543.06;;;10.72;100.00
70546;BME280;58098;51.680;5.134;2023-05-01T04:16:46;101541.31;;;10.72;100.00
70546;BME280;58098;51.680;5.134;2023-05-01T04:19:12;101549.34;;;10.69;100.00
70546;BME280;58098;51.680;5.134;2023-05-01T04:21:37;101551.94;;;10.69;100.00
70546;BME280;58098;51.680;5.134;2023-05-01T04:24:03;101543.06;;;10.59;100.00
70546;BME280;58098;51.680;5.134;2023-05-01T04:26:29;101550.91;;;10.59;100.00
70546;BME280;58098;51.680;5.134;2023-05-01T04:28:54;101545.69;;;10.59;100.00
70546;BME280;58098;51.680;5.134;2023-05-01T04:31:19;101531.06;;;10.56;100.00
70546;BME280;58098;51.680;5.134;2023-05-01T04:33:44;101531.50;;;10.63;100.00
70546;BME280;58098;51.680;5.134;2023-05-01T04:36:10;101521.66;;;10.54;100.00
70546;BME280;58098;51.680;5.134;2023-05-01T04:38:35;101528.88;;;10.63;100.00
70546;BME280;58098;51.680;5.134;2023-05-01T04:41:01;101526.06;;;10.53;100.00
70546;BME280;58098;51.680;5.134;2023-05-01T04:43:26;101533.34;;;10.61;100.00
70546;BME280;58098;51.680;5.134;2023-05-01T04:45:53;101536.19;;;10.58;100.00
70546;BME280;58098;51.680;5.134;2023-05-01T04:48:18;101515.72;;;10.52;100.00
70546;BME280;58098;51.680;5.134;2023-05-01T04:50:44;101529.28;;;10.57;100.00
70546;BME280;58098;51.680;5.134;2023-05-01T04:53:09;101537.03;;;10.58;100.00
70546;BME280;58098;51.680;5.134;2023-05-01T04:55:35;101524.72;;;10.60;100.00
70546;BME280;58098;51.680;5.134;2023-05-01T04:58:00;101529.81;;;10.62;100.00
70546;BME280;58098;51.680;5.134;2023-05-01T05:00:27;101512.91;;;10.55;100.00
70546;BME280;58098;51.680;5.134;2023-05-01T05:02:53;101520.75;;;10.55;100.00
70546;BME280;58098;51.680;5.134;2023-05-01T05:05:18;101536.91;;;10.60;100.00
70546;BME280;58098;51.680;5.134;2023-05-01T05:07:43;101530.03;;;10.59;100.00
70546;BME280;58098;51.680;5.134;2023-05-01T05:10:09;101511.53;;;10.49;100.00
70546;BME280;58098;51.680;5.134;2023-05-01T05:12:34;101507.06;;;10.51;100.00
70546;BME280;58098;51.680;5.134;2023-05-01T05:15:00;101529.63;;;10.65;100.00
70546;BME280;58098;51.680;5.134;2023-05-01T05:17:25;101517.69;;;10.61;100.00
70546;BME280;58098;51.680;5.134;2023-05-01T05:19:51;101536.41;;;10.80;100.00
70546;BME280;58098;51.680;5.134;2023-05-01T05:22:17;101535.44;;;10.81;100.00
70546;BME280;58098;51.680;5.134;2023-05-01T05:24:42;101531.47;;;10.88;100.00
70546;BME280;58098;51.680;5.134;2023-05-01T05:27:08;101534.81;;;10.90;100.00
70546;BME280;58098;51.680;5.134;2023-05-01T05:29:33;101533.47;;;10.97;100.00
70546;BME280;58098;51.680;5.134;2023-05-01T05:31:59;101539.94;;;11.04;100.00
70546;BME280;58098;51.680;5.134;2023-05-01T05:34:25;101540.84;;;11.16;100.00
70546;BME280;58098;51.680;5.134;2023-05-01T05:36:50;101536.97;;;11.21;100.00
70546;BME280;58098;51.680;5.134;2023-05-01T05:39:16;101523.47;;;11.27;100.00
70546;BME280;58098;51.680;5.134;2023-05-01T05:41:41;101520.19;;;11.37;100.00
70546;BME280;58098;51.680;5.134;2023-05-01T05:44:07;101538.56;;;11.48;100.00
70546;BME280;58098;51.680;5.134;2023-05-01T05:46:32;101531.63;;;11.59;100.00
70546;BME280;58098;51.680;5.134;2023-05-01T05:48:57;101522.72;;;11.62;100.00
70546;BME280;58098;51.680;5.134;2023-05-01T05:51:22;101521.44;;;11.67;100.00
70546;BME280;58098;51.680;5.134;2023-05-01T05:53:48;101518.84;;;11.67;100.00
70546;BME280;58098;51.680;5.134;2023-05-01T05:56:13;101523.44;;;11.76;100.00
70546;BME280;58098;51.680;5.134;2023-05-01T05:58:38;101521.53;;;11.78;100.00
70546;BME280;58098;51.680;5.134;2023-05-01T06:01:04;101524.78;;;11.82;100.00
70546;BME280;58098;51.680;5.134;2023-05-01T06:03:30;101523.59;;;11.86;100.00
70546;BME280;58098;51.680;5.134;2023-05-01T06:05:56;101524.59;;;11.96;100.00
70546;BME280;58098;51.680;5.134;2023-05-01T06:08:21;101517.22;;;12.01;100.00
70546;BME280;58098;51.680;5.134;2023-05-01T06:10:47;101517.34;;;12.00;100.00
70546;BME280;58098;51.680;5.134;2023-05-01T06:13:12;101530.47;;;12.11;100.00
70546;BME280;58098;51.680;5.134;2023-05-01T06:15:38;101530.13;;;12.15;100.00
70546;BME280;58098;51.680;5.134;2023-05-01T06:18:04;101520.84;;;12.22;100.00
70546;BME280;58098;51.680;5.134;2023-05-01T06:20:29;101526.84;;;12.35;100.00
70546;BME280;58098;51.680;5.134;2023-05-01T06:22:55;101508.75;;;12.32;100.00
70546;BME280;58098;51.680;5.134;2023-05-01T06:25:21;101514.25;;;12.51;100.00
70546;BME280;58098;51.680;5.134;2023-05-01T06:27:47;101528.31;;;12.62;100.00
70546;BME280;58098;51.680;5.134;2023-05-01T06:30:12;101519.44;;;12.75;100.00
70546;BME280;58098;51.680;5.134;2023-05-01T06:32:37;101525.84;;;12.82;100.00
70546;BME280;58098;51.680;5.134;2023-05-01T06:35:03;101516.94;;;12.85;100.00
70546;BME280;58098;51.680;5.134;2023-05-01T06:37:29;101504.75;;;12.95;100.00
70546;BME280;58098;51.680;5.134;2023-05-01T06:39:54;101523.25;;;13.15;100.00
70546;BME280;58098;51.680;5.134;2023-05-01T06:42:20;101512.16;;;13.12;100.00
70546;BME280;58098;51.680;5.134;2023-05-01T06:44:45;101498.13;;;13.13;100.00
70546;BME280;58098;51.680;5.134;2023-05-01T06:47:11;101515.25;;;13.28;100.00
70546;BME280;58098;51.680;5.134;2023-05-01T06:49:36;101527.63;;;13.37;100.00
70546;BME280;58098;51.680;5.134;2023-05-01T06:52:01;101528.47;;;13.38;100.00
70546;BME280;58098;51.680;5.134;2023-05-01T06:54:27;101523.09;;;13.39;100.00
70546;BME280;58098;51.680;5.134;2023-05-01T06:56:52;101529.25;;;13.49;100.00
70546;BME280;58098;51.680;5.134;2023-05-01T06:59:18;101532.81;;;13.59;100.00
70546;BME280;58098;51.680;5.134;2023-05-01T07:01:43;101524.44;;;13.65;100.00
70546;BME280;58098;51.680;5.134;2023-05-01T07:04:08;101525.38;;;13.75;100.00
70546;BME280;58098;51.680;5.134;2023-05-01T07:06:34;101523.41;;;13.88;100.00
70546;BME280;58098;51.680;5.134;2023-05-01T07:09:00;101522.91;;;13.95;100.00
70546;BME280;58098;51.680;5.134;2023-05-01T07:11:25;101519.78;;;14.01;100.00
70546;BME280;58098;51.680;5.134;2023-05-01T07:13:51;101520.63;;;14.22;100.00
70546;BME280;58098;51.680;5.134;2023-05-01T07:16:16;101518.19;;;14.30;100.00
70546;BME280;58098;51.680;5.134;2023-05-01T07:18:42;101522.72;;;14.39;100.00
70546;BME280;58098;51.680;5.134;2023-05-01T07:21:07;101533.25;;;14.69;100.00
70546;BME280;58098;51.680;5.134;2023-05-01T07:23:36;101531.72;;;14.67;100.00
70546;BME280;58098;51.680;5.134;2023-05-01T07:26:01;101521.91;;;14.69;100.00
70546;BME280;58098;51.680;5.134;2023-05-01T07:28:26;101534.41;;;14.76;100.00
70546;BME280;58098;51.680;5.134;2023-05-01T07:30:52;101541.88;;;15.01;100.00
70546;BME280;58098;51.680;5.134;2023-05-01T07:33:17;101544.66;;;15.19;100.00
70546;BME280;58098;51.680;5.134;2023-05-01T07:35:42;101533.22;;;15.30;100.00
70546;BME280;58098;51.680;5.134;2023-05-01T07:38:07;101544.72;;;15.38;100.00
70546;BME280;58098;51.680;5.134;2023-05-01T07:40:33;101540.94;;;15.52;100.00
70546;BME280;58098;51.680;5.134;2023-05-01T07:42:59;101547.69;;;15.45;100.00
70546;BME280;58098;51.680;5.134;2023-05-01T07:45:24;101533.41;;;15.38;100.00
70546;BME280;58098;51.680;5.134;2023-05-01T07:47:50;101550.19;;;15.46;100.00
70546;BME280;58098;51.680;5.134;2023-05-01T07:50:16;101543.06;;;15.28;100.00
70546;BME280;58098;51.680;5.134;2023-05-01T07:52:41;101534.16;;;15.19;100.00
70546;BME280;58098;51.680;5.134;2023-05-01T07:55:07;101541.38;;;15.27;100.00
70546;BME280;58098;51.680;5.134;2023-05-01T07:57:34;101533.00;;;15.42;100.00
70546;BME280;58098;51.680;5.134;2023-05-01T07:59:59;101532.16;;;15.42;100.00
70546;BME280;58098;51.680;5.134;2023-05-01T08:02:25;101521.00;;;15.49;100.00
70546;BME280;58098;51.680;5.134;2023-05-01T08:04:50;101535.84;;;15.60;100.00
70546;BME280;58098;51.680;5.134;2023-05-01T08:07:15;101526.25;;;15.49;100.00
70546;BME280;58098;51.680;5.134;2023-05-01T08:09:41;101536.25;;;15.74;100.00
70546;BME280;58098;51.680;5.134;2023-05-01T08:12:06;101526.69;;;15.83;100.00
70546;BME280;58098;51.680;5.134;2023-05-01T08:14:32;101544.28;;;16.02;100.00
70546;BME280;58098;51.680;5.134;2023-05-01T08:16:57;101528.47;;;16.11;100.00
70546;BME280;58098;51.680;5.134;2023-05-01T08:19:23;101525.16;;;16.09;100.00
70546;BME280;58098;51.680;5.134;2023-05-01T08:21:48;101535.16;;;15.96;100.00
70546;BME280;58098;51.680;5.134;2023-05-01T08:24:14;101535.53;;;15.72;100.00
70546;BME280;58098;51.680;5.134;2023-05-01T08:26:39;101534.31;;;15.76;100.00
70546;BME280;58098;51.680;5.134;2023-05-01T08:29:04;101530.44;;;15.71;100.00
70546;BME280;58098;51.680;5.134;2023-05-01T08:31:30;101547.34;;;15.97;100.00
70546;BME280;58098;51.680;5.134;2023-05-01T08:33:55;101531.28;;;15.91;100.00
70546;BME280;58098;51.680;5.134;2023-05-01T08:36:21;101549.69;;;15.91;100.00
70546;BME280;58098;51.680;5.134;2023-05-01T08:38:46;101539.28;;;15.79;100.00
70546;BME280;58098;51.680;5.134;2023-05-01T08:41:19;101539.72;;;15.94;100.00
70546;BME280;58098;51.680;5.134;2023-05-01T08:43:45;101539.31;;;15.89;100.00
70546;BME280;58098;51.680;5.134;2023-05-01T08:46:11;101546.91;;;15.92;100.00
70546;BME280;58098;51.680;5.134;2023-05-01T08:48:40;101540.97;;;15.90;100.00
70546;BME280;58098;51.680;5.134;2023-05-01T08:51:09;101550.13;;;16.05;100.00
70546;BME280;58098;51.680;5.134;2023-05-01T08:53:35;101544.25;;;15.63;100.00
70546;BME280;58098;51.680;5.134;2023-05-01T08:56:05;101543.31;;;15.74;100.00
70546;BME280;58098;51.680;5.134;2023-05-01T08:58:32;101531.72;;;15.37;100.00
70546;BME280;58098;51.680;5.134;2023-05-01T09:01:00;101539.81;;;15.45;100.00
70546;BME280;58098;51.680;5.134;2023-05-01T09:03:30;101551.63;;;15.60;100.00
70546;BME280;58098;51.680;5.134;2023-05-01T09:05:56;101559.53;;;15.69;100.00
70546;BME280;58098;51.680;5.134;2023-05-01T09:08:22;101558.44;;;15.81;100.00
70546;BME280;58098;51.680;5.134;2023-05-01T09:10:48;101557.31;;;15.74;100.00
70546;BME280;58098;51.680;5.134;2023-05-01T09:13:15;101552.84;;;15.75;100.00
70546;BME280;58098;51.680;5.134;2023-05-01T09:15:41;101545.69;;;15.87;100.00
70546;BME280;58098;51.680;5.134;2023-05-01T09:18:07;101549.28;;;15.95;100.00
70546;BME280;58098;51.680;5.134;2023-05-01T09:20:33;101546.22;;;15.90;100.00
70546;BME280;58098;51.680;5.134;2023-05-01T09:23:01;101552.72;;;15.67;100.00
70546;BME280;58098;51.680;5.134;2023-05-01T09:25:27;101558.41;;;15.72;100.00
70546;BME280;58098;51.680;5.134;2023-05-01T09:27:52;101550.78;;;15.69;100.00
70546;BME280;58098;51.680;5.134;2023-05-01T09:30:35;101561.88;;;15.82;100.00
70546;BME280;58098;51.680;5.134;2023-05-01T09:33:05;101562.28;;;15.87;100.00
70546;BME280;58098;51.680;5.134;2023-05-01T09:35:31;101557.59;;;16.00;100.00
70546;BME280;58098;51.680;5.134;2023-05-01T09:37:58;101573.97;;;16.13;100.00
70546;BME280;58098;51.680;5.134;2023-05-01T09:40:26;101569.78;;;16.49;100.00
70546;BME280;58098;51.680;5.134;2023-05-01T09:42:52;101565.91;;;16.53;100.00
70546;BME280;58098;51.680;5.134;2023-05-01T09:45:20;101545.16;;;16.77;100.00
70546;BME280;58098;51.680;5.134;2023-05-01T09:47:47;101555.53;;;16.98;100.00
70546;BME280;58098;51.680;5.134;2023-05-01T09:50:30;101559.91;;;17.07;100.00
70546;BME280;58098;51.680;5.134;2023-05-01T09:52:55;101561.16;;;17.12;100.00
70546;BME280;58098;51.680;5.134;2023-05-01T09:55:21;101563.06;;;17.47;100.00
70546;BME280;58098;51.680;5.134;2023-05-01T09:57:47;101564.41;;;17.51;100.00
70546;BME280;58098;51.680;5.134;2023-05-01T10:00:14;101568.88;;;17.96;100.00
70546;BME280;58098;51.680;5.134;2023-05-01T10:02:41;101567.19;;;18.30;100.00
70546;BME280;58098;51.680;5.134;2023-05-01T10:05:08;101556.66;;;18.56;100.00
70546;BME280;58098;51.680;5.134;2023-05-01T10:07:34;101571.81;;;18.71;100.00
70546;BME280;58098;51.680;5.134;2023-05-01T10:10:18;101564.94;;;19.12;100.00
70546;BME280;58098;51.680;5.134;2023-05-01T10:12:45;101567.84;;;19.01;100.00
70546;BME280;58098;51.680;5.134;2023-05-01T10:15:10;101569.34;;;19.37;100.00
70546;BME280;58098;51.680;5.134;2023-05-01T10:17:37;101573.16;;;19.35;100.00
70546;BME280;58098;51.680;5.134;2023-05-01T10:20:04;101561.19;;;19.31;100.00
70546;BME280;58098;51.680;5.134;2023-05-01T10:22:30;101566.78;;;19.20;100.00
70546;BME280;58098;51.680;5.134;2023-05-01T10:24:58;101559.06;;;19.34;100.00
70546;BME280;58098;51.680;5.134;2023-05-01T10:27:25;101573.34;;;19.07;100.00
70546;BME280;58098;51.680;5.134;2023-05-01T10:29:53;101571.97;;;18.95;100.00
70546;BME280;58098;51.680;5.134;2023-05-01T10:32:19;101575.13;;;18.73;100.00
70546;BME280;58098;51.680;5.134;2023-05-01T10:34:54;101581.00;;;18.59;100.00
70546;BME280;58098;51.680;5.134;2023-05-01T10:37:24;101582.16;;;18.65;100.00
70546;BME280;58098;51.680;5.134;2023-05-01T10:39:51;101586.03;;;18.70;100.00
70546;BME280;58098;51.680;5.134;2023-05-01T10:42:16;101596.31;;;18.38;100.00
70546;BME280;58098;51.680;5.134;2023-05-01T10:44:42;101585.38;;;18.51;100.00
70546;BME280;58098;51.680;5.134;2023-05-01T10:50:10;101583.19;;;18.46;100.00
70546;BME280;58098;51.680;5.134;2023-05-01T10:55:44;101591.00;;;18.73;100.00
70546;BME280;58098;51.680;5.134;2023-05-01T10:58:59;101581.47;;;18.80;100.00
70546;BME280;58098;51.680;5.134;2023-05-01T11:01:33;101603.06;;;19.01;100.00
70546;BME280;58098;51.680;5.134;2023-05-01T11:09:41;101600.09;;;18.79;100.00
70546;BME280;58098;51.680;5.134;2023-05-01T11:12:08;101592.53;;;18.58;100.00
70546;BME280;58098;51.680;5.134;2023-05-01T11:20:07;101582.13;;;17.68;100.00
70546;BME280;58098;51.680;5.134;2023-05-01T11:22:34;101599.66;;;18.05;100.00
70546;BME280;58098;51.680;5.134;2023-05-01T11:25:01;101597.31;;;18.02;100.00
70546;BME280;58098;51.680;5.134;2023-05-01T11:27:29;101598.91;;;18.30;100.00
70546;BME280;58098;51.680;5.134;2023-05-01T11:29:57;101600.19;;;18.26;100.00
70546;BME280;58098;51.680;5.134;2023-05-01T11:32:26;101582.78;;;18.84;100.00
70546;BME280;58098;51.680;5.134;2023-05-01T11:34:52;101589.63;;;18.69;100.00
70546;BME280;58098;51.680;5.134;2023-05-01T11:37:18;101585.72;;;18.73;100.00
70546;BME280;58098;51.680;5.134;2023-05-01T11:39:50;101604.75;;;19.02;100.00
70546;BME280;58098;51.680;5.134;2023-05-01T11:42:19;101604.84;;;18.93;100.00
70546;BME280;58098;51.680;5.134;2023-05-01T11:45:04;101594.63;;;18.72;100.00
70546;BME280;58098;51.680;5.134;2023-05-01T11:47:33;101606.81;;;18.65;100.00
70546;BME280;58098;51.680;5.134;2023-05-01T11:49:59;101618.28;;;18.21;100.00
70546;BME280;58098;51.680;5.134;2023-05-01T11:52:27;101599.50;;;18.24;100.00
70546;BME280;58098;51.680;5.134;2023-05-01T11:54:52;101605.25;;;18.02;100.00
70546;BME280;58098;51.680;5.134;2023-05-01T11:57:17;101612.75;;;17.61;100.00
70546;BME280;58098;51.680;5.134;2023-05-01T11:59:45;101613.03;;;17.58;100.00
70546;BME280;58098;51.680;5.134;2023-05-01T12:02:18;101601.38;;;17.51;100.00
70546;BME280;58098;51.680;5.134;2023-05-01T12:04:44;101604.28;;;17.21;100.00
70546;BME280;58098;51.680;5.134;2023-05-01T12:07:21;101587.88;;;17.27;100.00
70546;BME280;58098;51.680;5.134;2023-05-01T12:09:48;101593.28;;;16.98;100.00
70546;BME280;58098;51.680;5.134;2023-05-01T12:12:14;101599.44;;;17.16;100.00
70546;BME280;58098;51.680;5.134;2023-05-01T12:14:40;101605.41;;;17.18;100.00
70546;BME280;58098;51.680;5.134;2023-05-01T12:17:06;101598.19;;;16.74;100.00
70546;BME280;58098;51.680;5.134;2023-05-01T12:19:33;101612.34;;;16.64;100.00
70546;BME280;58098;51.680;5.134;2023-05-01T12:22:08;101600.53;;;16.68;100.00
70546;BME280;58098;51.680;5.134;2023-05-01T12:24:34;101612.47;;;16.14;100.00
70546;BME280;58098;51.680;5.134;2023-05-01T12:27:00;101607.16;;;15.76;100.00
70546;BME280;58098;51.680;5.134;2023-05-01T12:29:38;101608.66;;;15.59;100.00
70546;BME280;58098;51.680;5.134;2023-05-01T12:32:06;101595.28;;;15.42;100.00
70546;BME280;58098;51.680;5.134;2023-05-01T12:34:32;101606.75;;;15.41;100.00
70546;BME280;58098;51.680;5.134;2023-05-01T12:36:58;101594.53;;;15.60;100.00
70546;BME280;58098;51.680;5.134;2023-05-01T12:39:23;101602.38;;;15.51;100.00
70546;BME280;58098;51.680;5.134;2023-05-01T12:41:49;101615.63;;;15.40;100.00
70546;BME280;58098;51.680;5.134;2023-05-01T12:44:25;101616.44;;;15.31;100.00
70546;BME280;58098;51.680;5.134;2023-05-01T12:47:01;101611.75;;;15.44;100.00
70546;BME280;58098;51.680;5.134;2023-05-01T12:49:27;101595.97;;;15.44;100.00
70546;BME280;58098;51.680;5.134;2023-05-01T12:51:55;101606.69;;;15.52;100.00
70546;BME280;58098;51.680;5.134;2023-05-01T12:54:29;101616.84;;;15.66;100.00
70546;BME280;58098;51.680;5.134;2023-05-01T12:57:08;101605.78;;;15.72;100.00
70546;BME280;58098;51.680;5.134;2023-05-01T12:59:35;101608.41;;;15.72;100.00
70546;BME280;58098;51.680;5.134;2023-05-01T13:02:03;101591.66;;;15.73;100.00
70546;BME280;58098;51.680;5.134;2023-05-01T13:04:29;101600.38;;;15.73;100.00
70546;BME280;58098;51.680;5.134;2023-05-01T13:06:55;101593.59;;;15.71;100.00
70546;BME280;58098;51.680;5.134;2023-05-01T13:09:22;101604.13;;;15.80;100.00